Time;durP1;ratioP1;P1;durP2;ratioP2;P2;SDS_P1;SDS_P2;PMS_P1;PMS_P2;Temp;Humidity;BMP_temperature;BMP_pressure;BME280_temperature;BME280_humidity;BME280_pressure;Samples;Min_cycle;Max_cycle;Signal;HPM_P1;HPM_P2
2022/12/04 00:01:11;;;;;;;43.28;20.30;;;;;;;7.14;59.57;100435.31;4378853;32;20455;-93
2022/12/04 00:03:39;;;;;;;45.97;22.87;;;;;;;7.11;59.58;100434.50;4398562;32;20463;-92
2022/12/04 00:06:15;;;;;;;39.63;19.85;;;;;;;7.07;59.57;100434.50;4393125;32;20109;-92
2022/12/04 00:08:41;;;;;;;40.40;21.62;;;;;;;7.05;59.57;100441.41;4383853;32;20914;-91
2022/12/04 00:11:08;;;;;;;38.85;20.95;;;;;;;7.08;59.57;100443.13;4400818;32;20088;-92
2022/12/04 00:13:33;;;;;;;45.08;20.88;;;;;;;7.08;59.57;100436.19;4400598;32;20171;-92
2022/12/04 00:15:59;;;;;;;41.92;19.87;;;;;;;6.94;59.56;100439.78;4398414;32;20114;-92
2022/12/04 00:18:25;;;;;;;43.13;21.62;;;;;;;7.04;59.57;100437.09;4380455;32;20117;-90
2022/12/04 00:20:50;;;;;;;42.85;21.48;;;;;;;6.99;59.57;100430.25;4383718;32;20112;-93
2022/12/04 00:23:16;;;;;;;40.45;20.88;;;;;;;6.93;59.56;100438.91;4394387;32;20098;-91
2022/12/04 00:25:41;;;;;;;42.22;20.65;;;;;;;6.96;59.57;100444.06;4403262;32;20136;-92
2022/12/04 00:28:07;;;;;;;42.75;20.62;;;;;;;6.98;59.57;100451.81;4415211;32;20090;-94
2022/12/04 00:30:32;;;;;;;43.10;20.85;;;;;;;6.82;59.56;100458.81;4401963;32;20147;-94
2022/12/04 00:32:57;;;;;;;45.40;21.37;;;;;;;6.91;59.56;100458.78;4387462;32;25389;-94
2022/12/04 00:35:24;;;;;;;44.30;22.37;;;;;;;6.83;59.56;100452.75;4410108;32;20178;-94
2022/12/04 00:37:50;;;;;;;43.45;22.90;;;;;;;6.88;59.56;100452.75;4422284;32;20105;-95
2022/12/04 00:40:15;;;;;;;40.75;21.37;;;;;;;6.94;59.57;100445.81;4413116;32;20078;-93
2022/12/04 00:42:57;;;;;;;48.15;21.10;;;;;;;6.89;59.57;100450.16;4387480;32;20180;-93
2022/12/04 00:48:13;;;;;;;48.30;20.90;;;;;;;6.84;59.56;100446.72;4404248;32;20092;-92
2022/12/04 00:50:39;;;;;;;41.05;21.23;;;;;;;6.92;59.56;100434.59;4400241;32;20395;-93
2022/12/04 00:53:04;;;;;;;43.17;20.98;;;;;;;6.75;59.55;100439.88;4412568;32;20109;-93
2022/12/04 00:55:32;;;;;;;41.88;20.88;;;;;;;6.74;59.55;100438.16;4398353;32;20131;-92
2022/12/04 00:57:58;;;;;;;44.03;20.62;;;;;;;6.81;59.56;100451.91;4383334;32;20146;-91
2022/12/04 01:00:23;;;;;;;44.90;22.10;;;;;;;6.74;59.55;100453.69;4399909;32;20498;-91
2022/12/04 01:02:49;;;;;;;44.67;21.48;;;;;;;6.78;59.56;100451.94;4409862;32;20522;-91
2022/12/04 01:05:14;;;;;;;42.00;20.05;;;;;;;6.88;59.57;100445.84;4385136;32;20132;-92
2022/12/04 01:07:40;;;;;;;41.60;20.58;;;;;;;6.75;59.55;100449.38;4399421;32;20101;-92
2022/12/04 01:10:06;;;;;;;40.58;20.80;;;;;;;6.74;59.56;100447.66;4399536;32;20110;-92
2022/12/04 01:12:31;;;;;;;46.37;20.67;;;;;;;6.52;59.54;100446.87;4394835;32;20117;-92
2022/12/04 01:14:57;;;;;;;39.90;20.58;;;;;;;6.78;59.55;100437.25;4394680;32;20101;-92
2022/12/04 01:17:23;;;;;;;41.15;20.00;;;;;;;6.94;59.56;100442.34;4412652;32;20105;-93
2022/12/04 01:19:48;;;;;;;44.35;20.45;;;;;;;6.87;59.56;100441.53;4400772;32;20094;-92
2022/12/04 01:22:14;;;;;;;43.75;21.12;;;;;;;6.77;59.55;100445.03;4400484;32;20110;-91
2022/12/04 01:24:39;;;;;;;42.67;19.37;;;;;;;6.80;59.56;100442.44;4400943;32;20109;-90
2022/12/04 01:27:05;;;;;;;41.37;19.73;;;;;;;6.87;59.56;100446.72;4399917;32;30808;-92
2022/12/04 01:29:30;;;;;;;40.15;19.67;;;;;;;6.69;59.55;100445.09;4400415;32;20089;-93
2022/12/04 01:31:55;;;;;;;44.92;20.40;;;;;;;6.68;59.55;100443.38;4413200;32;20453;-92
2022/12/04 01:34:21;;;;;;;43.87;21.12;;;;;;;6.63;59.55;100452.03;4400625;32;20248;-93
2022/12/04 01:36:47;;;;;;;39.47;19.85;;;;;;;6.72;59.56;100452.84;4413437;32;20463;-93
2022/12/04 01:39:12;;;;;;;38.25;19.70;;;;;;;6.72;59.56;100450.25;4400501;32;20142;-93
2022/12/04 01:41:38;;;;;;;42.42;19.77;;;;;;;6.69;59.55;100439.06;4400380;32;20101;-92
2022/12/04 01:44:15;;;;;;;42.58;21.50;;;;;;;6.90;59.56;100444.13;4399778;32;26273;-91
2022/12/04 01:46:44;;;;;;;44.92;21.05;;;;;;;6.89;59.56;100441.53;4412968;32;20161;-92
2022/12/04 01:49:13;;;;;;;42.30;19.27;;;;;;;6.85;59.56;100435.50;4400482;32;20108;-91
2022/12/04 01:51:41;;;;;;;40.40;20.45;;;;;;;6.84;59.56;100435.50;4400700;32;20110;-92
2022/12/04 01:54:09;;;;;;;43.55;20.02;;;;;;;6.81;59.56;100436.38;4399616;32;20098;-93
2022/12/04 01:56:41;;;;;;;48.13;22.25;;;;;;;6.75;59.55;100433.84;4399967;32;20749;-92
2022/12/04 01:59:06;;;;;;;49.63;21.55;;;;;;;6.74;59.55;100430.41;4400292;32;20521;-94
2022/12/04 02:01:35;;;;;;;45.42;21.87;;;;;;;6.53;59.55;100425.31;4400333;32;20102;-93
2022/12/04 02:04:01;;;;;;;44.28;21.55;;;;;;;6.67;59.55;100427.84;4400648;32;20142;-93
2022/12/04 02:06:28;;;;;;;42.53;21.65;;;;;;;6.38;59.53;100423.66;4405104;32;20094;-92
2022/12/04 02:08:53;;;;;;;42.53;21.12;;;;;;;6.38;59.53;100422.81;4401761;32;20085;-93
2022/12/04 02:11:26;;;;;;;39.38;20.30;;;;;;;6.52;59.54;100422.75;4399652;32;21688;-92
2022/12/04 02:13:54;;;;;;;48.13;22.55;;;;;;;6.21;59.53;100428.06;4400098;32;20093;-92
2022/12/04 02:16:46;;;;;;;41.28;21.67;;;;;;;6.27;59.53;100427.16;4412678;32;20532;-90
2022/12/04 02:19:33;;;;;;;49.63;22.92;;;;;;;6.35;59.54;100423.69;4412835;32;20107;-91
2022/12/04 02:21:58;;;;;;;46.58;22.27;;;;;;;6.33;59.53;100425.41;4412641;32;20132;-92
2022/12/04 02:24:41;;;;;;;46.08;21.33;;;;;;;6.40;59.53;100421.09;4399840;32;20106;-91
2022/12/04 02:27:33;;;;;;;44.38;21.87;;;;;;;6.23;59.53;100421.16;4412752;32;20735;-91
2022/12/04 02:30:03;;;;;;;47.60;21.75;;;;;;;6.35;59.54;100420.22;4412762;32;20078;-92
2022/12/04 02:33:07;;;;;;;41.95;21.37;;;;;;;6.27;59.52;100420.28;4400127;32;20124;-89
2022/12/04 02:35:41;;;;;;;43.17;21.75;;;;;;;6.29;59.54;100421.13;4411519;32;20527;-93
2022/12/04 02:38:16;;;;;;;48.78;22.23;;;;;;;6.21;59.53;100422.03;4412467;32;20094;-94
2022/12/04 02:41:00;;;;;;;47.75;22.48;;;;;;;6.15;59.53;100417.72;4425462;32;20103;-94
2022/12/04 02:43:29;;;;;;;42.95;20.55;;;;;;;5.92;59.51;100422.97;4412609;32;20114;-92
2022/12/04 02:46:04;;;;;;;48.40;21.67;;;;;;;6.10;59.52;100420.31;4412277;32;20097;-93
2022/12/04 02:48:30;;;;;;;44.85;21.70;;;;;;;5.98;59.51;100425.53;4412355;32;20085;-93
2022/12/04 02:50:56;;;;;;;45.95;22.13;;;;;;;5.83;59.51;100421.22;4399763;32;20121;-91
2022/12/04 02:53:29;;;;;;;50.20;22.50;;;;;;;5.97;59.51;100422.97;4412543;32;20101;-91
2022/12/04 02:56:01;;;;;;;48.08;21.95;;;;;;;5.81;59.50;100422.94;4412367;32;20165;-93
2022/12/04 02:58:32;;;;;;;47.03;23.08;;;;;;;5.65;59.49;100421.25;4412450;32;20046;-91
2022/12/04 03:00:59;;;;;;;54.75;24.08;;;;;;;5.83;59.51;100416.06;4412250;32;20073;-91
2022/12/04 03:03:26;;;;;;;49.67;24.73;;;;;;;5.63;59.50;100410.06;4411846;32;20116;-91
2022/12/04 03:06:01;;;;;;;54.30;23.55;;;;;;;5.67;59.49;100416.94;4412205;32;20109;-92
2022/12/04 03:08:33;;;;;;;50.88;23.90;;;;;;;5.47;59.48;100406.66;4411965;32;20090;-92
2022/12/04 03:10:59;;;;;;;50.40;23.55;;;;;;;5.61;59.49;100409.22;4412157;32;20058;-92
2022/12/04 03:13:34;;;;;;;49.05;24.92;;;;;;;5.61;59.48;100421.25;4399539;32;20109;-93
2022/12/04 03:16:12;;;;;;;55.67;24.80;;;;;;;5.47;59.49;100419.56;4399832;32;20179;-93
2022/12/04 03:19:16;;;;;;;52.75;24.50;;;;;;;5.37;59.47;100427.28;4411638;32;20093;-94
2022/12/04 03:21:45;;;;;;;52.20;24.70;;;;;;;5.51;59.48;100420.41;4406539;32;20106;-93
2022/12/04 03:24:22;;;;;;;52.75;25.12;;;;;;;5.56;59.49;100418.69;4411783;32;20477;-93
2022/12/04 03:27:02;;;;;;;53.30;25.08;;;;;;;5.68;59.49;100420.37;4411800;32;20097;-93
2022/12/04 03:29:34;;;;;;;59.85;25.35;;;;;;;5.55;59.49;100409.22;4424795;32;20046;-92
2022/12/04 03:32:09;;;;;;;57.80;25.58;;;;;;;5.67;59.49;100414.34;4400290;32;20128;-92
2022/12/04 03:35:04;;;;;;;51.37;23.77;;;;;;;5.62;59.50;100410.91;4413652;32;20102;-92
2022/12/04 03:37:37;;;;;;;52.10;23.85;;;;;;;5.60;59.48;100406.63;4413795;32;20113;-92
2022/12/04 03:40:10;;;;;;;52.97;24.48;;;;;;;5.63;59.50;100412.66;4401030;32;20050;-93
2022/12/04 03:42:50;;;;;;;52.65;24.55;;;;;;;5.62;59.50;100410.91;4413978;32;20062;-92
2022/12/04 03:45:25;;;;;;;56.92;25.83;;;;;;;5.69;59.50;100420.41;4405461;32;20078;-95
2022/12/04 03:47:56;;;;;;;52.67;22.87;;;;;;;5.60;59.48;100417.81;4396276;32;20086;-91
2022/12/04 03:50:35;;;;;;;55.83;25.20;;;;;;;5.63;59.49;100422.12;4401066;32;20132;-92
2022/12/04 03:53:19;;;;;;;51.58;25.05;;;;;;;5.49;59.48;100419.56;4401253;32;20081;-93
2022/12/04 03:55:49;;;;;;;53.03;23.67;;;;;;;5.47;59.48;100422.16;4401199;32;20157;-93
2022/12/04 03:58:18;;;;;;;53.47;23.62;;;;;;;5.53;59.49;100419.56;4400856;32;20097;-92
2022/12/04 04:00:44;;;;;;;56.65;24.50;;;;;;;5.34;59.47;100428.16;4401172;32;20086;-92
2022/12/04 04:03:19;;;;;;;53.38;23.67;;;;;;;5.39;59.48;100425.56;4401183;32;20149;-92
2022/12/04 04:05:51;;;;;;;54.92;24.52;;;;;;;5.34;59.47;100420.41;4401056;32;20105;-93
2022/12/04 04:11:39;;;;;;;51.88;22.92;;;;;;;5.33;59.48;100405.78;4413545;32;20090;-92
2022/12/04 04:26:12;;;;;;;43.40;20.62;;;;;;;5.15;59.46;100427.28;4426852;32;20109;-95
2022/12/04 04:28:38;;;;;;;45.97;20.70;;;;;;;5.26;59.47;100429.87;4401058;32;20149;-95
2022/12/04 04:31:26;;;;;;;48.03;20.83;;;;;;;5.24;59.47;100437.63;4413849;32;20089;-92
2022/12/04 04:34:00;;;;;;;52.70;22.13;;;;;;;5.16;59.46;100441.06;4400954;32;20536;-92
2022/12/04 04:36:49;;;;;;;49.58;22.58;;;;;;;5.00;59.45;100442.78;4413713;32;20077;-93
2022/12/04 04:39:55;;;;;;;46.55;20.62;;;;;;;5.15;59.46;100442.78;4413472;32;20102;-92
2022/12/04 04:42:26;;;;;;;45.42;21.58;;;;;;;5.24;59.46;100439.34;4425255;32;20122;-92
2022/12/04 04:44:52;;;;;;;46.28;22.15;;;;;;;5.32;59.48;100427.31;4413414;32;20145;-92
2022/12/04 04:47:26;;;;;;;41.37;19.37;;;;;;;5.22;59.47;100428.19;4413219;32;20109;-93
2022/12/04 04:49:52;;;;;;;43.40;20.17;;;;;;;5.22;59.46;100423.87;4412900;32;20119;-94
2022/12/04 04:52:17;;;;;;;45.17;20.50;;;;;;;5.00;59.45;100423.84;4400614;32;20157;-92
2022/12/04 04:54:45;;;;;;;41.03;20.00;;;;;;;5.09;59.47;100439.31;4413233;32;20124;-94
2022/12/04 04:57:10;;;;;;;50.58;21.87;;;;;;;4.86;59.45;100427.25;4400593;32;20168;-93
2022/12/04 04:59:35;;;;;;;43.22;20.67;;;;;;;5.10;59.46;100423.00;4400653;32;20122;-94
2022/12/04 05:02:01;;;;;;;45.17;20.42;;;;;;;5.20;59.47;100438.50;4400674;32;20175;-93
2022/12/04 05:04:26;;;;;;;44.08;20.80;;;;;;;5.17;59.47;100438.47;4413171;32;20146;-93
2022/12/04 05:06:52;;;;;;;40.85;18.92;;;;;;;5.06;59.46;100444.50;4400561;32;20152;-94
2022/12/04 05:09:17;;;;;;;46.00;20.02;;;;;;;5.29;59.47;100445.38;4400695;32;20458;-93
2022/12/04 05:11:42;;;;;;;42.58;19.33;;;;;;;5.28;59.47;100438.50;4400570;32;20523;-93
2022/12/04 05:14:08;;;;;;;44.15;17.98;;;;;;;5.03;59.46;100432.44;4400460;32;20094;-93
2022/12/04 05:16:34;;;;;;;39.30;19.98;;;;;;;5.03;59.46;100429.87;4400379;32;20138;-93
2022/12/04 05:21:43;;;;;;;45.00;19.87;;;;;;;5.09;59.47;100424.72;4421135;32;20164;-95
2022/12/04 05:24:08;;;;;;;42.47;19.70;;;;;;;5.04;59.46;100423.84;4421454;32;20367;-95
2022/12/04 05:26:34;;;;;;;49.65;19.95;;;;;;;5.11;59.46;100425.56;4414010;32;20363;-93
2022/12/04 05:28:59;;;;;;;43.30;19.10;;;;;;;5.15;59.46;100429.00;4400392;32;20176;-95
2022/12/04 05:31:25;;;;;;;38.20;18.80;;;;;;;5.17;59.47;100428.16;4400352;32;20148;-92
2022/12/04 05:33:50;;;;;;;36.03;16.98;;;;;;;5.11;59.46;100425.56;4400204;32;20137;-91
2022/12/04 05:36:16;;;;;;;38.75;17.50;;;;;;;5.18;59.47;100427.28;4412958;32;20108;-92
2022/12/04 05:38:41;;;;;;;37.30;17.40;;;;;;;5.07;59.46;100426.44;4400433;32;20185;-93
2022/12/04 05:41:06;;;;;;;45.17;18.25;;;;;;;4.96;59.45;100438.44;4413348;32;20151;-93
2022/12/04 05:43:32;;;;;;;39.95;18.30;;;;;;;5.06;59.46;100431.59;4400772;32;20106;-93
2022/12/04 05:46:04;;;;;;;40.00;18.52;;;;;;;5.08;59.45;100423.00;4413412;32;20102;-93
2022/12/04 05:48:29;;;;;;;40.67;16.40;;;;;;;5.16;59.46;100428.16;4413022;32;20109;-92
2022/12/04 05:50:55;;;;;;;40.17;17.12;;;;;;;5.15;59.46;100429.87;4400555;32;20149;-92
2022/12/04 05:53:20;;;;;;;36.47;16.12;;;;;;;5.11;59.46;100429.87;4400276;32;20176;-89
2022/12/04 05:55:55;;;;;;;35.13;16.02;;;;;;;5.15;59.46;100431.59;4400353;32;20141;-90
2022/12/04 05:58:21;;;;;;;38.60;16.62;;;;;;;5.15;59.46;100431.59;4413658;32;20722;-93
2022/12/04 06:00:46;;;;;;;36.97;16.62;;;;;;;5.05;59.46;100433.31;4413192;32;20114;-96
2022/12/04 06:03:12;;;;;;;40.53;17.00;;;;;;;5.00;59.45;100436.75;4400497;32;20090;-95
2022/12/04 06:05:37;;;;;;;33.63;16.67;;;;;;;5.02;59.46;100433.31;4400553;32;20111;-91
2022/12/04 06:08:03;;;;;;;37.45;16.50;;;;;;;5.26;59.48;100440.22;4399824;32;20675;-91
2022/12/04 06:10:28;;;;;;;35.53;14.70;;;;;;;5.29;59.47;100424.72;4412533;32;20148;-95
2022/12/04 06:12:56;;;;;;;30.10;14.85;;;;;;;5.19;59.47;100430.72;4400786;32;20462;-95
2022/12/04 06:15:22;;;;;;;34.00;15.15;;;;;;;5.05;59.46;100435.88;4401157;32;20466;-96
2022/12/04 06:17:55;;;;;;;34.53;14.63;;;;;;;5.11;59.46;100442.78;4427954;32;20097;-96
2022/12/04 06:20:20;;;;;;;31.70;14.18;;;;;;;5.16;59.47;100441.91;4400574;32;20097;-96
2022/12/04 06:22:46;;;;;;;33.33;14.65;;;;;;;5.10;59.47;100446.22;4400502;32;20518;-96
2022/12/04 06:25:11;;;;;;;31.75;14.50;;;;;;;5.13;59.46;100443.63;4400854;32;20192;-95
2022/12/04 06:27:36;;;;;;;33.15;14.48;;;;;;;5.17;59.47;100445.34;4413091;32;20101;-95
2022/12/04 06:30:02;;;;;;;34.25;16.25;;;;;;;5.36;59.47;100451.38;4413250;32;20118;-95
2022/12/04 06:32:30;;;;;;;36.25;15.52;;;;;;;5.30;59.47;100446.22;4400123;32;20112;-96
2022/12/04 06:34:56;;;;;;;31.17;14.90;;;;;;;5.15;59.46;100450.50;4400155;32;20081;-92
2022/12/04 06:37:22;;;;;;;32.53;15.25;;;;;;;5.20;59.47;100440.19;4399669;32;23843;-92
2022/12/04 06:39:48;;;;;;;33.08;15.10;;;;;;;5.14;59.46;100447.94;4400646;32;20110;-94
2022/12/04 06:42:13;;;;;;;30.85;15.52;;;;;;;5.27;59.47;100441.06;4408395;32;20112;-93
2022/12/04 06:44:39;;;;;;;28.95;13.68;;;;;;;5.43;59.48;100441.06;4412461;32;20078;-89
2022/12/04 06:47:04;;;;;;;29.77;15.20;;;;;;;5.57;59.49;100428.16;4408224;32;21770;-91
2022/12/04 06:49:30;;;;;;;34.20;14.70;;;;;;;5.58;59.49;100422.12;4406696;32;20128;-93
2022/12/04 06:51:55;;;;;;;31.83;15.10;;;;;;;5.65;59.49;100422.97;4416016;32;20129;-91
2022/12/04 06:54:21;;;;;;;30.70;15.63;;;;;;;5.70;59.50;100432.47;4413673;32;20113;-93
2022/12/04 06:56:47;;;;;;;30.37;14.18;;;;;;;5.67;59.49;100434.16;4403565;32;20170;-92
2022/12/04 06:59:12;;;;;;;31.50;15.73;;;;;;;5.61;59.48;100423.84;4402803;32;20728;-95
2022/12/04 07:01:38;;;;;;;35.08;17.05;;;;;;;5.72;59.50;100422.12;4399856;32;20090;-94
2022/12/04 07:04:04;;;;;;;33.88;15.27;;;;;;;5.76;59.50;100422.09;4414318;32;20102;-92
2022/12/04 07:06:31;;;;;;;32.40;15.32;;;;;;;5.78;59.50;100422.97;4399305;32;20121;-90
2022/12/04 07:08:58;;;;;;;30.62;16.08;;;;;;;5.81;59.50;100419.50;4387427;32;20106;-91
2022/12/04 07:11:24;;;;;;;34.63;16.60;;;;;;;5.83;59.50;100430.69;4389414;32;20054;-92
2022/12/04 07:13:56;;;;;;;32.22;15.52;;;;;;;5.94;59.51;100428.13;4387197;32;20112;-91
2022/12/04 07:16:23;;;;;;;36.20;17.20;;;;;;;5.76;59.49;100426.41;4399195;32;20128;-88
2022/12/04 07:18:55;;;;;;;40.65;17.00;;;;;;;5.90;59.51;100427.25;4386524;32;20132;-89
2022/12/04 07:21:22;;;;;;;35.30;16.10;;;;;;;6.01;59.51;100425.53;4388012;32;20093;-87
2022/12/04 07:23:52;;;;;;;38.22;17.27;;;;;;;5.94;59.51;100429.00;4386684;32;20141;-89
2022/12/04 07:26:20;;;;;;;40.28;17.17;;;;;;;5.91;59.51;100434.16;4399060;32;20458;-90
2022/12/04 07:28:46;;;;;;;38.78;17.67;;;;;;;5.97;59.51;100431.56;4424512;32;20093;-91
2022/12/04 07:31:24;;;;;;;36.22;16.83;;;;;;;6.03;59.51;100412.59;4386516;32;20167;-91
2022/12/04 07:33:50;;;;;;;40.35;18.55;;;;;;;6.15;59.52;100423.78;4386495;32;20106;-88
2022/12/04 07:36:19;;;;;;;38.80;17.83;;;;;;;6.19;59.52;100434.97;4386614;32;20472;-91
2022/12/04 07:38:44;;;;;;;36.83;18.62;;;;;;;6.07;59.52;100428.09;4411627;32;20113;-91
2022/12/04 07:41:10;;;;;;;39.20;18.60;;;;;;;5.98;59.51;100430.72;4386378;32;20114;-91
2022/12/04 07:43:36;;;;;;;33.75;18.10;;;;;;;6.17;59.52;100428.94;4386376;32;20102;-90
2022/12/04 07:46:06;;;;;;;40.83;18.50;;;;;;;6.03;59.52;100428.09;4386380;32;20133;-88
2022/12/04 07:48:31;;;;;;;43.20;20.37;;;;;;;6.28;59.53;100440.09;4386135;32;20413;-89
2022/12/04 07:51:24;;;;;;;41.25;19.33;;;;;;;6.25;59.52;100444.41;4385593;32;20102;-87
2022/12/04 07:53:50;;;;;;;39.65;18.90;;;;;;;6.31;59.53;100439.22;4396408;32;20108;-90
2022/12/04 07:56:15;;;;;;;39.33;19.42;;;;;;;6.37;59.53;100436.59;4385285;32;20138;-89
2022/12/04 07:58:41;;;;;;;42.85;19.87;;;;;;;6.53;59.54;100430.50;4385473;32;20170;-87
2022/12/04 08:01:14;;;;;;;45.38;24.33;;;;;;;6.53;59.54;100424.47;4385378;32;20100;-90
2022/12/04 08:03:41;;;;;;;44.33;19.77;;;;;;;6.52;59.54;100425.34;4385500;32;20078;-90
2022/12/04 08:06:06;;;;;;;41.42;18.10;;;;;;;6.33;59.53;100430.59;4386102;32;20454;-89
2022/12/04 08:08:32;;;;;;;39.72;18.67;;;;;;;6.30;59.53;100425.44;4385635;32;20177;-89
2022/12/04 08:10:58;;;;;;;40.72;19.87;;;;;;;6.44;59.54;100431.41;4385552;32;20098;-90
2022/12/04 08:13:23;;;;;;;41.75;19.15;;;;;;;6.40;59.53;100432.28;4387297;32;20094;-89
2022/12/04 08:15:49;;;;;;;39.85;19.62;;;;;;;6.55;59.54;100431.34;4398325;32;20109;-90
2022/12/04 08:18:14;;;;;;;37.42;18.33;;;;;;;6.63;59.54;100431.34;4387625;32;20126;-88
2022/12/04 08:20:40;;;;;;;49.67;23.80;;;;;;;6.54;59.54;100429.63;4387940;32;20141;-90
2022/12/04 08:23:05;;;;;;;76.50;45.33;;;;;;;6.74;59.55;100425.22;4387913;32;20157;-90
2022/12/04 08:25:30;;;;;;;46.05;21.83;;;;;;;6.70;59.55;100422.66;4387851;32;20481;-91
2022/12/04 08:27:56;;;;;;;37.53;19.65;;;;;;;6.85;59.56;100419.09;4388188;32;20133;-90
2022/12/04 08:30:21;;;;;;;48.00;20.62;;;;;;;6.89;59.56;100426.87;4387719;32;28169;-89
2022/12/04 08:32:47;;;;;;;42.42;19.17;;;;;;;7.07;59.57;100425.88;4402660;32;20204;-89
2022/12/04 08:35:12;;;;;;;48.15;21.75;;;;;;;7.04;59.57;100424.16;4400826;32;20371;-90
2022/12/04 08:37:38;;;;;;;44.72;20.77;;;;;;;7.00;59.57;100421.59;4401091;32;20158;-90
2022/12/04 08:40:03;;;;;;;43.50;19.87;;;;;;;7.01;59.56;100426.78;4388790;32;25306;-90
2022/12/04 08:42:29;;;;;;;37.85;18.50;;;;;;;7.21;59.58;100421.47;4397029;32;20078;-89
2022/12/04 08:44:54;;;;;;;40.30;19.33;;;;;;;7.27;59.58;100416.22;4394665;32;20149;-89
2022/12/04 08:47:20;;;;;;;42.35;19.27;;;;;;;7.31;59.58;100422.22;4404228;32;23848;-90
2022/12/04 08:49:45;;;;;;;42.42;20.23;;;;;;;7.21;59.58;100431.81;4388217;32;20463;-90
2022/12/04 08:52:10;;;;;;;42.03;19.92;;;;;;;7.33;59.59;100429.16;4388019;32;20089;-92
2022/12/04 08:54:36;;;;;;;35.78;19.85;;;;;;;7.49;59.60;100421.22;4387907;32;20170;-90
2022/12/04 08:57:02;;;;;;;36.50;18.60;;;;;;;7.56;59.60;100421.16;4387941;32;20168;-90
2022/12/04 08:59:27;;;;;;;36.63;18.35;;;;;;;7.72;59.61;100418.44;4389175;32;20133;-92
2022/12/04 09:01:52;;;;;;;40.30;20.15;;;;;;;7.77;59.62;100424.41;4401289;32;20082;-91
2022/12/04 09:04:18;;;;;;;42.53;20.35;;;;;;;7.76;59.61;100414.94;4400998;32;20158;-89
2022/12/04 09:06:43;;;;;;;42.88;20.95;;;;;;;7.77;59.61;100417.50;4400010;32;20105;-89
2022/12/04 09:09:09;;;;;;;42.47;20.70;;;;;;;7.69;59.60;100416.72;4399947;32;20094;-86
2022/12/04 09:11:34;;;;;;;43.97;20.17;;;;;;;7.65;59.60;100415.03;4386352;32;27261;-88
2022/12/04 09:14:00;;;;;;;39.42;20.35;;;;;;;7.93;59.62;100413.87;4387554;32;20122;-88
2022/12/04 09:16:28;;;;;;;39.80;19.15;;;;;;;7.79;59.61;100410.56;4412845;32;20093;-90
2022/12/04 09:18:54;;;;;;;37.58;19.52;;;;;;;7.93;59.62;100413.03;4386788;32;20146;-87
2022/12/04 09:21:23;;;;;;;38.97;20.45;;;;;;;7.85;59.62;100407.06;4386800;32;20101;-88
2022/12/04 09:23:49;;;;;;;38.83;18.17;;;;;;;7.90;59.61;100413.06;4399287;32;20132;-87
2022/12/04 09:26:17;;;;;;;42.92;19.83;;;;;;;7.87;59.62;100407.91;4386275;32;20175;-90
2022/12/04 09:28:43;;;;;;;40.80;19.40;;;;;;;7.89;59.62;100409.63;4412189;32;20157;-91
2022/12/04 09:31:09;;;;;;;39.22;19.33;;;;;;;7.92;59.62;100404.41;4400165;32;20116;-90
2022/12/04 09:33:34;;;;;;;40.35;18.92;;;;;;;7.89;59.62;100400.97;4371941;32;123197;-88
2022/12/04 09:36:00;;;;;;;39.80;18.58;;;;;;;8.05;59.62;100401.69;4410647;32;20487;-88
2022/12/04 09:38:26;;;;;;;39.53;18.20;;;;;;;8.11;59.63;100397.28;4399866;32;20093;-90
2022/12/04 09:41:03;;;;;;;37.45;18.25;;;;;;;8.24;59.64;100396.22;4400369;32;20216;-89
2022/12/04 09:43:48;;;;;;;43.40;19.52;;;;;;;8.21;59.63;100387.62;4412381;32;20136;-90
2022/12/04 09:46:29;;;;;;;36.55;18.02;;;;;;;8.25;59.64;100381.53;4400342;32;20100;-90
2022/12/04 09:48:56;;;;;;;33.10;17.35;;;;;;;8.32;59.64;100373.69;4389962;32;20153;-90
2022/12/04 09:51:21;;;;;;;36.00;19.52;;;;;;;8.30;59.63;100369.37;4400458;32;20129;-89
2022/12/04 09:54:14;;;;;;;34.28;17.00;;;;;;;8.36;59.64;100364.16;4387346;32;20109;-90
2022/12/04 09:56:39;;;;;;;37.17;18.60;;;;;;;8.59;59.66;100358.66;4395872;32;20113;-90
2022/12/04 09:59:11;;;;;;;37.83;18.10;;;;;;;8.55;59.65;100359.56;4400121;32;20146;-91
2022/12/04 10:02:15;;;;;;;33.83;17.98;;;;;;;8.58;59.65;100357.78;4400016;32;20112;-91
2022/12/04 10:04:40;;;;;;;37.03;17.85;;;;;;;8.63;59.66;100347.34;4396915;32;20170;-89
2022/12/04 10:07:24;;;;;;;35.25;17.42;;;;;;;8.70;59.66;100354.16;4387212;32;20463;-91
2022/12/04 10:09:52;;;;;;;32.85;16.55;;;;;;;8.69;59.66;100348.97;4403716;32;20084;-89
2022/12/04 10:12:28;;;;;;;34.35;17.23;;;;;;;8.84;59.67;100341.81;4413135;32;20105;-90
2022/12/04 10:15:10;;;;;;;35.85;17.20;;;;;;;8.91;59.68;100340.84;4418938;32;20109;-89
2022/12/04 10:17:52;;;;;;;33.65;17.55;;;;;;;8.85;59.67;100343.53;4424096;32;20112;-89
2022/12/04 10:20:49;;;;;;;30.60;17.05;;;;;;;8.91;59.68;100338.25;4396874;32;20178;-90
2022/12/04 10:23:28;;;;;;;35.05;17.40;;;;;;;9.00;59.68;100331.22;4388703;32;20807;-90
2022/12/04 10:25:54;;;;;;;37.20;17.73;;;;;;;8.98;59.68;100338.13;4410807;32;20106;-92
2022/12/04 10:28:27;;;;;;;29.35;15.13;;;;;;;9.12;59.67;100333.59;4378917;32;20170;-89
2022/12/04 10:30:53;;;;;;;37.97;16.05;;;;;;;9.28;59.70;100326.41;4411723;32;20181;-89
2022/12/04 10:33:34;;;;;;;33.67;15.35;;;;;;;9.18;59.68;100325.69;4399526;32;20089;-90
2022/12/04 10:36:00;;;;;;;32.08;16.35;;;;;;;9.01;59.68;100323.41;4399022;32;20152;-89
2022/12/04 10:39:03;;;;;;;34.53;16.58;;;;;;;9.19;59.69;100328.25;4398960;32;20149;-88
2022/12/04 10:41:42;;;;;;;30.45;16.15;;;;;;;9.21;59.69;100316.09;4364138;32;20086;-88
2022/12/04 10:44:11;;;;;;;27.58;13.95;;;;;;;9.34;59.70;100314.16;4417151;32;20484;-89
2022/12/04 10:46:37;;;;;;;27.25;11.88;;;;;;;9.45;59.70;100299.22;4410569;32;20147;-89
2022/12/04 10:49:05;;;;;;;20.15;9.32;;;;;;;9.46;59.70;100293.16;4399870;32;20113;-89
2022/12/04 10:51:37;;;;;;;19.62;9.70;;;;;;;9.30;59.70;100302.09;4413343;32;20117;-89
2022/12/04 10:54:26;;;;;;;20.98;11.23;;;;;;;9.52;59.71;100289.59;4413074;32;20109;-89
2022/12/04 10:57:04;;;;;;;25.67;12.18;;;;;;;9.61;59.71;100286.78;4398126;32;20185;-89
2022/12/04 10:59:29;;;;;;;20.10;11.60;;;;;;;9.90;59.73;100283.59;4407462;32;20061;-88
2022/12/04 11:02:21;;;;;;;19.08;10.48;;;;;;;10.00;59.73;100272.13;4411161;32;20165;-88
2022/12/04 11:04:54;;;;;;;22.33;10.77;;;;;;;10.16;59.75;100273.50;4393610;32;20140;-88
2022/12/04 11:07:22;;;;;;;19.73;10.00;;;;;;;10.12;59.74;100269.25;4390746;32;20110;-90
2022/12/04 11:10:03;;;;;;;18.10;9.88;;;;;;;10.17;59.73;100253.53;4399171;32;20109;-90
2022/12/04 11:12:28;;;;;;;23.15;10.63;;;;;;;10.12;59.74;100253.66;4386743;32;20124;-90
2022/12/04 11:15:06;;;;;;;21.95;11.38;;;;;;;10.14;59.73;100249.25;4388531;32;20093;-89
2022/12/04 11:17:31;;;;;;;20.27;10.95;;;;;;;10.27;59.74;100241.22;4411183;32;20506;-89
2022/12/04 11:20:35;;;;;;;20.80;10.23;;;;;;;10.28;59.74;100240.34;4398522;32;20151;-89
2022/12/04 11:23:00;;;;;;;22.35;10.23;;;;;;;10.19;59.74;100259.59;4351576;32;20106;-89
2022/12/04 11:25:27;;;;;;;18.90;9.95;;;;;;;9.97;59.73;100242.75;4350464;32;20511;-91
2022/12/04 11:27:54;;;;;;;21.90;11.00;;;;;;;10.19;59.75;100253.53;4364684;32;20114;-91
2022/12/04 11:30:36;;;;;;;21.62;11.02;;;;;;;10.13;59.74;100237.16;4383659;32;20109;-88
2022/12/04 11:33:02;;;;;;;22.50;11.20;;;;;;;10.35;59.75;100237.53;4384253;32;20090;-89
2022/12/04 11:35:28;;;;;;;24.12;12.13;;;;;;;10.26;59.75;100226.50;4383809;32;20098;-90
2022/12/04 11:38:13;;;;;;;21.90;11.80;;;;;;;10.31;59.75;100235.91;4384325;32;20132;-91
2022/12/04 11:40:38;;;;;;;25.80;12.57;;;;;;;10.17;59.75;100240.53;4384077;32;20106;-90
2022/12/04 11:43:14;;;;;;;24.65;12.37;;;;;;;9.89;59.72;100239.44;4398336;32;20110;-90
2022/12/04 11:45:39;;;;;;;26.35;12.80;;;;;;;9.92;59.73;100237.63;4384334;32;20090;-90
2022/12/04 11:48:16;;;;;;;24.35;12.65;;;;;;;10.04;59.74;100228.72;4384289;32;20132;-90
2022/12/04 11:50:47;;;;;;;27.45;13.32;;;;;;;10.03;59.74;100219.19;4387171;32;20094;-90